sensor_id;sensor_type;location;lat;lon;timestamp;P1;durP1;ratioP1;P2;durP2;ratioP2
3993;SDS011;2011;48.238;13.948;2023-08-30T00:00:51;9.13;;;3.20;;
3993;SDS011;2011;48.238;13.948;2023-08-30T00:03:19;4.37;;;3.33;;
3993;SDS011;2011;48.238;13.948;2023-08-30T00:05:46;6.27;;;4.00;;
3993;SDS011;2011;48.238;13.948;2023-08-30T00:08:13;7.33;;;3.60;;
3993;SDS011;2011;48.238;13.948;2023-08-30T00:10:43;5.80;;;3.97;;
3993;SDS011;2011;48.238;13.948;2023-08-30T00:13:10;12.50;;;4.33;;
3993;SDS011;2011;48.238;13.948;2023-08-30T00:15:39;6.30;;;4.50;;
3993;SDS011;2011;48.238;13.948;2023-08-30T00:18:06;5.33;;;3.80;;
3993;SDS011;2011;48.238;13.948;2023-08-30T00:20:33;6.10;;;4.30;;
3993;SDS011;2011;48.238;13.948;2023-08-30T00:23:00;6.27;;;4.43;;
3993;SDS011;2011;48.238;13.948;2023-08-30T00:25:27;22.33;;;4.70;;
3993;SDS011;2011;48.238;13.948;2023-08-30T00:27:54;8.30;;;5.40;;
3993;SDS011;2011;48.238;13.948;2023-08-30T00:30:21;7.07;;;5.10;;
3993;SDS011;2011;48.238;13.948;2023-08-30T00:32:49;6.83;;;4.70;;
3993;SDS011;2011;48.238;13.948;2023-08-30T00:35:17;7.70;;;5.30;;
3993;SDS011;2011;48.238;13.948;2023-08-30T00:37:44;6.80;;;5.10;;
3993;SDS011;2011;48.238;13.948;2023-08-30T00:40:11;13.23;;;4.30;;
3993;SDS011;2011;48.238;13.948;2023-08-30T00:42:38;9.87;;;5.03;;
3993;SDS011;2011;48.238;13.948;2023-08-30T00:45:06;16.60;;;4.60;;
3993;SDS011;2011;48.238;13.948;2023-08-30T00:47:33;6.70;;;5.00;;
3993;SDS011;2011;48.238;13.948;2023-08-30T00:50:03;6.73;;;4.40;;
3993;SDS011;2011;48.238;13.948;2023-08-30T00:52:31;6.80;;;3.87;;
3993;SDS011;2011;48.238;13.948;2023-08-30T00:54:58;5.47;;;4.33;;
3993;SDS011;2011;48.238;13.948;2023-08-30T00:57:26;10.00;;;4.97;;
3993;SDS011;2011;48.238;13.948;2023-08-30T00:59:53;7.47;;;4.40;;
3993;SDS011;2011;48.238;13.948;2023-08-30T01:02:21;6.70;;;4.93;;
3993;SDS011;2011;48.238;13.948;2023-08-30T01:04:49;7.80;;;5.30;;
3993;SDS011;2011;48.238;13.948;2023-08-30T01:07:17;9.90;;;5.10;;
3993;SDS011;2011;48.238;13.948;2023-08-30T01:09:45;7.50;;;5.60;;
3993;SDS011;2011;48.238;13.948;2023-08-30T01:12:12;9.70;;;7.07;;
3993;SDS011;2011;48.238;13.948;2023-08-30T01:14:49;10.73;;;8.20;;
3993;SDS011;2011;48.238;13.948;2023-08-30T01:17:23;12.17;;;7.93;;
3993;SDS011;2011;48.238;13.948;2023-08-30T01:19:51;15.37;;;9.50;;
3993;SDS011;2011;48.238;13.948;2023-08-30T01:22:35;14.27;;;9.70;;
3993;SDS011;2011;48.238;13.948;2023-08-30T01:25:12;17.97;;;10.63;;
3993;SDS011;2011;48.238;13.948;2023-08-30T01:27:48;15.70;;;10.03;;
3993;SDS011;2011;48.238;13.948;2023-08-30T01:30:17;15.80;;;10.67;;
3993;SDS011;2011;48.238;13.948;2023-08-30T01:32:46;19.40;;;11.37;;
3993;SDS011;2011;48.238;13.948;2023-08-30T01:35:14;22.83;;;11.57;;
3993;SDS011;2011;48.238;13.948;2023-08-30T01:37:43;20.07;;;12.43;;
3993;SDS011;2011;48.238;13.948;2023-08-30T01:40:11;20.10;;;12.93;;
3993;SDS011;2011;48.238;13.948;2023-08-30T01:42:41;19.20;;;11.27;;
3993;SDS011;2011;48.238;13.948;2023-08-30T01:45:11;19.90;;;12.60;;
3993;SDS011;2011;48.238;13.948;2023-08-30T01:47:41;17.13;;;11.40;;
3993;SDS011;2011;48.238;13.948;2023-08-30T01:50:10;18.90;;;10.80;;
3993;SDS011;2011;48.238;13.948;2023-08-30T01:52:38;18.80;;;11.73;;
3993;SDS011;2011;48.238;13.948;2023-08-30T01:55:07;17.63;;;12.20;;
3993;SDS011;2011;48.238;13.948;2023-08-30T01:57:35;18.30;;;11.17;;
3993;SDS011;2011;48.238;13.948;2023-08-30T02:00:03;17.63;;;11.60;;
3993;SDS011;2011;48.238;13.948;2023-08-30T02:02:33;19.70;;;11.80;;
3993;SDS011;2011;48.238;13.948;2023-08-30T02:05:00;18.83;;;11.80;;
3993;SDS011;2011;48.238;13.948;2023-08-30T02:07:28;20.60;;;12.60;;
3993;SDS011;2011;48.238;13.948;2023-08-30T02:10:04;20.47;;;12.50;;
3993;SDS011;2011;48.238;13.948;2023-08-30T02:12:36;20.17;;;12.07;;
3993;SDS011;2011;48.238;13.948;2023-08-30T02:15:08;17.57;;;12.40;;
3993;SDS011;2011;48.238;13.948;2023-08-30T02:17:38;20.00;;;13.43;;
3993;SDS011;2011;48.238;13.948;2023-08-30T02:20:06;22.67;;;13.90;;
3993;SDS011;2011;48.238;13.948;2023-08-30T02:22:33;20.70;;;13.03;;
3993;SDS011;2011;48.238;13.948;2023-08-30T02:25:01;21.17;;;13.07;;
3993;SDS011;2011;48.238;13.948;2023-08-30T02:27:30;17.53;;;12.47;;
3993;SDS011;2011;48.238;13.948;2023-08-30T02:29:57;20.93;;;14.00;;
3993;SDS011;2011;48.238;13.948;2023-08-30T02:32:24;20.90;;;12.30;;
3993;SDS011;2011;48.238;13.948;2023-08-30T02:34:52;19.20;;;13.57;;
3993;SDS011;2011;48.238;13.948;2023-08-30T02:37:19;19.80;;;13.13;;
3993;SDS011;2011;48.238;13.948;2023-08-30T02:39:47;17.87;;;12.50;;
3993;SDS011;2011;48.238;13.948;2023-08-30T02:42:14;20.60;;;12.50;;
3993;SDS011;2011;48.238;13.948;2023-08-30T02:44:41;24.50;;;12.67;;
3993;SDS011;2011;48.238;13.948;2023-08-30T02:47:08;16.47;;;11.93;;
3993;SDS011;2011;48.238;13.948;2023-08-30T02:49:35;18.50;;;12.90;;
3993;SDS011;2011;48.238;13.948;2023-08-30T02:52:04;19.17;;;12.20;;
3993;SDS011;2011;48.238;13.948;2023-08-30T02:54:32;17.97;;;12.10;;
3993;SDS011;2011;48.238;13.948;2023-08-30T02:56:59;16.13;;;11.50;;
3993;SDS011;2011;48.238;13.948;2023-08-30T02:59:27;17.40;;;12.27;;
3993;SDS011;2011;48.238;13.948;2023-08-30T03:01:54;17.10;;;11.70;;
3993;SDS011;2011;48.238;13.948;2023-08-30T03:04:21;20.10;;;11.07;;
3993;SDS011;2011;48.238;13.948;2023-08-30T03:06:48;14.73;;;11.60;;
3993;SDS011;2011;48.238;13.948;2023-08-30T03:09:16;15.33;;;11.17;;
3993;SDS011;2011;48.238;13.948;2023-08-30T03:11:43;16.83;;;11.70;;
3993;SDS011;2011;48.238;13.948;2023-08-30T03:14:10;15.80;;;9.83;;
3993;SDS011;2011;48.238;13.948;2023-08-30T03:16:37;16.37;;;11.30;;
3993;SDS011;2011;48.238;13.948;2023-08-30T03:19:04;13.63;;;10.50;;
3993;SDS011;2011;48.238;13.948;2023-08-30T03:21:31;18.57;;;12.27;;
3993;SDS011;2011;48.238;13.948;2023-08-30T03:23:59;17.93;;;9.93;;
3993;SDS011;2011;48.238;13.948;2023-08-30T03:26:27;37.23;;;11.70;;
3993;SDS011;2011;48.238;13.948;2023-08-30T03:28:54;17.37;;;10.40;;
3993;SDS011;2011;48.238;13.948;2023-08-30T03:31:21;18.13;;;11.70;;
3993;SDS011;2011;48.238;13.948;2023-08-30T03:33:48;16.63;;;11.63;;
3993;SDS011;2011;48.238;13.948;2023-08-30T03:36:17;16.77;;;10.90;;
3993;SDS011;2011;48.238;13.948;2023-08-30T03:38:44;15.10;;;10.60;;
3993;SDS011;2011;48.238;13.948;2023-08-30T03:41:12;24.23;;;10.63;;
3993;SDS011;2011;48.238;13.948;2023-08-30T03:43:40;17.00;;;10.10;;
3993;SDS011;2011;48.238;13.948;2023-08-30T03:46:07;14.60;;;9.00;;
3993;SDS011;2011;48.238;13.948;2023-08-30T03:48:36;17.90;;;9.70;;
3993;SDS011;2011;48.238;13.948;2023-08-30T03:51:04;15.47;;;9.70;;
3993;SDS011;2011;48.238;13.948;2023-08-30T03:53:31;11.00;;;8.40;;
3993;SDS011;2011;48.238;13.948;2023-08-30T03:55:58;12.00;;;8.83;;
3993;SDS011;2011;48.238;13.948;2023-08-30T03:58:25;13.77;;;9.80;;
3993;SDS011;2011;48.238;13.948;2023-08-30T04:00:53;16.60;;;9.60;;
3993;SDS011;2011;48.238;13.948;2023-08-30T04:03:20;14.60;;;8.20;;
3993;SDS011;2011;48.238;13.948;2023-08-30T04:05:47;11.63;;;8.87;;
3993;SDS011;2011;48.238;13.948;2023-08-30T04:08:20;11.80;;;8.93;;
3993;SDS011;2011;48.238;13.948;2023-08-30T04:10:47;11.53;;;7.80;;
3993;SDS011;2011;48.238;13.948;2023-08-30T04:13:18;17.50;;;9.57;;
3993;SDS011;2011;48.238;13.948;2023-08-30T04:15:45;16.33;;;9.47;;
3993;SDS011;2011;48.238;13.948;2023-08-30T04:18:13;12.20;;;8.70;;
3993;SDS011;2011;48.238;13.948;2023-08-30T04:20:43;11.83;;;8.53;;
3993;SDS011;2011;48.238;13.948;2023-08-30T04:23:11;16.13;;;9.17;;
3993;SDS011;2011;48.238;13.948;2023-08-30T04:25:39;12.80;;;9.00;;
3993;SDS011;2011;48.238;13.948;2023-08-30T04:28:06;12.63;;;8.97;;
3993;SDS011;2011;48.238;13.948;2023-08-30T04:30:35;11.77;;;9.00;;
3993;SDS011;2011;48.238;13.948;2023-08-30T04:33:02;14.07;;;8.80;;
3993;SDS011;2011;48.238;13.948;2023-08-30T04:35:31;11.80;;;8.80;;
3993;SDS011;2011;48.238;13.948;2023-08-30T04:37:59;15.90;;;9.80;;
3993;SDS011;2011;48.238;13.948;2023-08-30T04:40:26;13.53;;;9.30;;
3993;SDS011;2011;48.238;13.948;2023-08-30T04:42:53;14.87;;;9.10;;
3993;SDS011;2011;48.238;13.948;2023-08-30T04:45:20;13.10;;;9.83;;
3993;SDS011;2011;48.238;13.948;2023-08-30T04:47:48;11.93;;;9.63;;
3993;SDS011;2011;48.238;13.948;2023-08-30T04:50:15;19.27;;;9.20;;
3993;SDS011;2011;48.238;13.948;2023-08-30T04:52:43;13.10;;;9.10;;
3993;SDS011;2011;48.238;13.948;2023-08-30T04:55:10;12.17;;;9.10;;
3993;SDS011;2011;48.238;13.948;2023-08-30T04:57:37;13.17;;;10.03;;
3993;SDS011;2011;48.238;13.948;2023-08-30T05:00:05;12.73;;;9.40;;
3993;SDS011;2011;48.238;13.948;2023-08-30T05:02:33;15.70;;;10.00;;
3993;SDS011;2011;48.238;13.948;2023-08-30T05:05:00;14.70;;;9.77;;
3993;SDS011;2011;48.238;13.948;2023-08-30T05:07:27;13.57;;;9.97;;
3993;SDS011;2011;48.238;13.948;2023-08-30T05:09:56;21.23;;;9.43;;
3993;SDS011;2011;48.238;13.948;2023-08-30T05:12:23;11.50;;;8.77;;
3993;SDS011;2011;48.238;13.948;2023-08-30T05:14:51;13.53;;;8.97;;
3993;SDS011;2011;48.238;13.948;2023-08-30T05:17:24;17.00;;;10.50;;
3993;SDS011;2011;48.238;13.948;2023-08-30T05:19:54;13.47;;;9.70;;
3993;SDS011;2011;48.238;13.948;2023-08-30T05:22:21;18.03;;;9.23;;
3993;SDS011;2011;48.238;13.948;2023-08-30T05:24:48;14.80;;;8.40;;
3993;SDS011;2011;48.238;13.948;2023-08-30T05:27:16;11.60;;;9.43;;
3993;SDS011;2011;48.238;13.948;2023-08-30T05:29:43;14.43;;;9.37;;
3993;SDS011;2011;48.238;13.948;2023-08-30T05:32:10;12.17;;;8.57;;
3993;SDS011;2011;48.238;13.948;2023-08-30T05:34:37;10.33;;;8.20;;
3993;SDS011;2011;48.238;13.948;2023-08-30T05:37:04;18.73;;;9.67;;
3993;SDS011;2011;48.238;13.948;2023-08-30T05:39:32;12.83;;;9.83;;
3993;SDS011;2011;48.238;13.948;2023-08-30T05:42:00;16.17;;;9.60;;
3993;SDS011;2011;48.238;13.948;2023-08-30T05:44:29;12.40;;;9.60;;
3993;SDS011;2011;48.238;13.948;2023-08-30T05:46:56;12.63;;;9.73;;
3993;SDS011;2011;48.238;13.948;2023-08-30T05:49:23;11.70;;;8.27;;
3993;SDS011;2011;48.238;13.948;2023-08-30T05:51:50;11.50;;;8.93;;
3993;SDS011;2011;48.238;13.948;2023-08-30T05:54:17;11.80;;;8.73;;
3993;SDS011;2011;48.238;13.948;2023-08-30T05:56:44;12.27;;;8.97;;
3993;SDS011;2011;48.238;13.948;2023-08-30T05:59:11;12.87;;;9.20;;
3993;SDS011;2011;48.238;13.948;2023-08-30T06:01:40;12.70;;;8.87;;
3993;SDS011;2011;48.238;13.948;2023-08-30T06:04:07;15.63;;;9.30;;
3993;SDS011;2011;48.238;13.948;2023-08-30T06:06:34;16.50;;;10.47;;
3993;SDS011;2011;48.238;13.948;2023-08-30T06:09:01;11.50;;;8.93;;
3993;SDS011;2011;48.238;13.948;2023-08-30T06:11:28;12.50;;;8.30;;
3993;SDS011;2011;48.238;13.948;2023-08-30T06:13:56;11.67;;;8.70;;
3993;SDS011;2011;48.238;13.948;2023-08-30T06:16:24;11.47;;;8.80;;
3993;SDS011;2011;48.238;13.948;2023-08-30T06:18:52;11.13;;;8.30;;
3993;SDS011;2011;48.238;13.948;2023-08-30T06:21:19;11.80;;;8.60;;
3993;SDS011;2011;48.238;13.948;2023-08-30T06:23:46;12.80;;;8.50;;
3993;SDS011;2011;48.238;13.948;2023-08-30T06:26:13;14.53;;;8.83;;
3993;SDS011;2011;48.238;13.948;2023-08-30T06:28:40;14.20;;;8.80;;
3993;SDS011;2011;48.238;13.948;2023-08-30T06:31:08;11.17;;;8.17;;
3993;SDS011;2011;48.238;13.948;2023-08-30T06:33:35;10.40;;;8.07;;
3993;SDS011;2011;48.238;13.948;2023-08-30T06:36:05;12.50;;;7.60;;
3993;SDS011;2011;48.238;13.948;2023-08-30T06:38:32;12.80;;;7.70;;
3993;SDS011;2011;48.238;13.948;2023-08-30T06:40:59;12.40;;;8.17;;
3993;SDS011;2011;48.238;13.948;2023-08-30T06:43:26;15.30;;;8.30;;
3993;SDS011;2011;48.238;13.948;2023-08-30T06:45:56;11.73;;;8.60;;
3993;SDS011;2011;48.238;13.948;2023-08-30T06:48:23;12.13;;;8.50;;
3993;SDS011;2011;48.238;13.948;2023-08-30T06:50:50;9.73;;;7.60;;
3993;SDS011;2011;48.238;13.948;2023-08-30T06:53:19;13.10;;;7.50;;
3993;SDS011;2011;48.238;13.948;2023-08-30T06:55:46;11.43;;;7.10;;
3993;SDS011;2011;48.238;13.948;2023-08-30T06:58:22;15.87;;;8.57;;
3993;SDS011;2011;48.238;13.948;2023-08-30T07:00:49;12.07;;;7.17;;
3993;SDS011;2011;48.238;13.948;2023-08-30T07:03:16;10.40;;;7.30;;
3993;SDS011;2011;48.238;13.948;2023-08-30T07:05:43;8.73;;;6.40;;
3993;SDS011;2011;48.238;13.948;2023-08-30T07:08:12;10.17;;;7.60;;
3993;SDS011;2011;48.238;13.948;2023-08-30T07:10:41;16.23;;;7.20;;
3993;SDS011;2011;48.238;13.948;2023-08-30T07:13:09;11.13;;;6.67;;
3993;SDS011;2011;48.238;13.948;2023-08-30T07:15:37;13.30;;;7.77;;
3993;SDS011;2011;48.238;13.948;2023-08-30T07:18:04;11.90;;;7.60;;
3993;SDS011;2011;48.238;13.948;2023-08-30T07:20:32;11.63;;;7.10;;
3993;SDS011;2011;48.238;13.948;2023-08-30T07:22:59;11.50;;;7.30;;
3993;SDS011;2011;48.238;13.948;2023-08-30T07:25:26;11.20;;;6.70;;
3993;SDS011;2011;48.238;13.948;2023-08-30T07:27:54;10.57;;;7.67;;
3993;SDS011;2011;48.238;13.948;2023-08-30T07:30:21;11.33;;;7.60;;
3993;SDS011;2011;48.238;13.948;2023-08-30T07:32:48;10.60;;;6.90;;
3993;SDS011;2011;48.238;13.948;2023-08-30T07:35:15;12.60;;;6.70;;
3993;SDS011;2011;48.238;13.948;2023-08-30T07:37:42;12.00;;;6.77;;
3993;SDS011;2011;48.238;13.948;2023-08-30T07:40:10;8.60;;;6.10;;
3993;SDS011;2011;48.238;13.948;2023-08-30T07:42:37;7.80;;;5.67;;
3993;SDS011;2011;48.238;13.948;2023-08-30T07:45:07;9.30;;;6.47;;
3993;SDS011;2011;48.238;13.948;2023-08-30T07:47:35;8.50;;;5.93;;
3993;SDS011;2011;48.238;13.948;2023-08-30T07:50:03;8.77;;;6.17;;
3993;SDS011;2011;48.238;13.948;2023-08-30T07:52:31;7.83;;;5.60;;
3993;SDS011;2011;48.238;13.948;2023-08-30T07:54:58;8.30;;;5.40;;
3993;SDS011;2011;48.238;13.948;2023-08-30T07:57:25;10.37;;;6.13;;
3993;SDS011;2011;48.238;13.948;2023-08-30T07:59:53;10.27;;;5.10;;
3993;SDS011;2011;48.238;13.948;2023-08-30T08:02:21;11.57;;;6.00;;
3993;SDS011;2011;48.238;13.948;2023-08-30T08:04:48;9.30;;;5.50;;
3993;SDS011;2011;48.238;13.948;2023-08-30T08:07:17;11.27;;;6.00;;
3993;SDS011;2011;48.238;13.948;2023-08-30T08:09:44;8.97;;;5.33;;
3993;SDS011;2011;48.238;13.948;2023-08-30T08:12:11;7.40;;;5.23;;
3993;SDS011;2011;48.238;13.948;2023-08-30T08:14:38;7.17;;;5.00;;
3993;SDS011;2011;48.238;13.948;2023-08-30T08:17:05;9.30;;;4.70;;
3993;SDS011;2011;48.238;13.948;2023-08-30T08:19:33;9.00;;;6.20;;
3993;SDS011;2011;48.238;13.948;2023-08-30T08:22:04;7.70;;;5.10;;
3993;SDS011;2011;48.238;13.948;2023-08-30T08:24:31;7.73;;;5.17;;
3993;SDS011;2011;48.238;13.948;2023-08-30T08:26:58;12.30;;;6.07;;
3993;SDS011;2011;48.238;13.948;2023-08-30T08:29:26;7.57;;;4.80;;
3993;SDS011;2011;48.238;13.948;2023-08-30T08:31:53;7.40;;;4.53;;
3993;SDS011;2011;48.238;13.948;2023-08-30T08:34:20;7.80;;;4.47;;
3993;SDS011;2011;48.238;13.948;2023-08-30T08:36:49;6.90;;;4.70;;
3993;SDS011;2011;48.238;13.948;2023-08-30T08:39:16;12.77;;;4.83;;
3993;SDS011;2011;48.238;13.948;2023-08-30T08:41:44;21.57;;;5.03;;
3993;SDS011;2011;48.238;13.948;2023-08-30T08:44:12;10.30;;;4.33;;
3993;SDS011;2011;48.238;13.948;2023-08-30T08:46:40;7.43;;;3.90;;
3993;SDS011;2011;48.238;13.948;2023-08-30T08:49:08;5.33;;;3.80;;
3993;SDS011;2011;48.238;13.948;2023-08-30T08:51:38;5.57;;;3.60;;
3993;SDS011;2011;48.238;13.948;2023-08-30T08:54:08;9.53;;;3.87;;
3993;SDS011;2011;48.238;13.948;2023-08-30T08:56:36;8.37;;;3.80;;
3993;SDS011;2011;48.238;13.948;2023-08-30T08:59:04;7.07;;;3.83;;
3993;SDS011;2011;48.238;13.948;2023-08-30T09:01:33;6.27;;;3.60;;
3993;SDS011;2011;48.238;13.948;2023-08-30T09:04:01;6.03;;;3.43;;
3993;SDS011;2011;48.238;13.948;2023-08-30T09:06:32;7.20;;;3.53;;
3993;SDS011;2011;48.238;13.948;2023-08-30T09:09:00;9.77;;;4.13;;
3993;SDS011;2011;48.238;13.948;2023-08-30T09:11:30;5.47;;;3.43;;
3993;SDS011;2011;48.238;13.948;2023-08-30T09:13:58;5.57;;;3.40;;
3993;SDS011;2011;48.238;13.948;2023-08-30T09:16:25;8.00;;;4.33;;
3993;SDS011;2011;48.238;13.948;2023-08-30T09:18:58;6.17;;;3.80;;
3993;SDS011;2011;48.238;13.948;2023-08-30T09:21:25;5.13;;;3.30;;
3993;SDS011;2011;48.238;13.948;2023-08-30T09:23:59;6.70;;;3.50;;
3993;SDS011;2011;48.238;13.948;2023-08-30T09:26:26;6.60;;;3.50;;
3993;SDS011;2011;48.238;13.948;2023-08-30T09:28:56;6.70;;;3.10;;
3993;SDS011;2011;48.238;13.948;2023-08-30T09:31:32;7.67;;;3.57;;
3993;SDS011;2011;48.238;13.948;2023-08-30T09:33:59;5.70;;;3.40;;
3993;SDS011;2011;48.238;13.948;2023-08-30T09:36:32;5.43;;;3.43;;
3993;SDS011;2011;48.238;13.948;2023-08-30T09:39:02;7.23;;;3.60;;
3993;SDS011;2011;48.238;13.948;2023-08-30T09:41:30;6.10;;;3.50;;
3993;SDS011;2011;48.238;13.948;2023-08-30T09:44:05;10.03;;;3.30;;
3993;SDS011;2011;48.238;13.948;2023-08-30T09:46:39;7.27;;;3.73;;
3993;SDS011;2011;48.238;13.948;2023-08-30T09:49:07;5.80;;;3.57;;
3993;SDS011;2011;48.238;13.948;2023-08-30T09:51:35;6.03;;;3.40;;
3993;SDS011;2011;48.238;13.948;2023-08-30T09:54:06;6.50;;;3.83;;
3993;SDS011;2011;48.238;13.948;2023-08-30T09:56:39;6.57;;;3.73;;
3993;SDS011;2011;48.238;13.948;2023-08-30T09:59:09;8.03;;;4.00;;
3993;SDS011;2011;48.238;13.948;2023-08-30T10:01:37;6.50;;;3.80;;
3993;SDS011;2011;48.238;13.948;2023-08-30T10:04:04;7.70;;;3.80;;
3993;SDS011;2011;48.238;13.948;2023-08-30T10:06:33;7.03;;;4.10;;
3993;SDS011;2011;48.238;13.948;2023-08-30T10:09:01;8.87;;;3.57;;
3993;SDS011;2011;48.238;13.948;2023-08-30T10:11:30;6.43;;;3.93;;
3993;SDS011;2011;48.238;13.948;2023-08-30T10:14:02;11.63;;;3.87;;
3993;SDS011;2011;48.238;13.948;2023-08-30T10:16:32;6.80;;;4.00;;
3993;SDS011;2011;48.238;13.948;2023-08-30T10:19:07;7.43;;;3.53;;
3993;SDS011;2011;48.238;13.948;2023-08-30T10:21:36;7.33;;;3.83;;
3993;SDS011;2011;48.238;13.948;2023-08-30T10:24:05;5.93;;;4.13;;
3993;SDS011;2011;48.238;13.948;2023-08-30T10:26:35;8.20;;;4.00;;
3993;SDS011;2011;48.238;13.948;2023-08-30T10:29:04;7.53;;;3.90;;
3993;SDS011;2011;48.238;13.948;2023-08-30T10:31:33;5.87;;;3.27;;
3993;SDS011;2011;48.238;13.948;2023-08-30T10:34:01;8.97;;;3.30;;
3993;SDS011;2011;48.238;13.948;2023-08-30T10:36:28;5.90;;;3.70;;
3993;SDS011;2011;48.238;13.948;2023-08-30T10:38:55;8.57;;;4.07;;
3993;SDS011;2011;48.238;13.948;2023-08-30T10:41:22;5.93;;;3.60;;
3993;SDS011;2011;48.238;13.948;2023-08-30T10:43:51;6.10;;;3.90;;
3993;SDS011;2011;48.238;13.948;2023-08-30T10:46:28;7.47;;;4.00;;
3993;SDS011;2011;48.238;13.948;2023-08-30T10:49:07;8.63;;;3.63;;
3993;SDS011;2011;48.238;13.948;2023-08-30T10:51:36;5.30;;;3.40;;
3993;SDS011;2011;48.238;13.948;2023-08-30T10:54:13;6.60;;;3.90;;
3993;SDS011;2011;48.238;13.948;2023-08-30T10:56:48;12.37;;;3.87;;
3993;SDS011;2011;48.238;13.948;2023-08-30T10:59:21;8.53;;;3.63;;
3993;SDS011;2011;48.238;13.948;2023-08-30T11:01:50;7.40;;;3.53;;
3993;SDS011;2011;48.238;13.948;2023-08-30T11:04:19;7.97;;;3.40;;
3993;SDS011;2011;48.238;13.948;2023-08-30T11:06:48;5.53;;;3.40;;
3993;SDS011;2011;48.238;13.948;2023-08-30T11:09:16;4.93;;;2.73;;
3993;SDS011;2011;48.238;13.948;2023-08-30T11:11:45;6.47;;;3.20;;
3993;SDS011;2011;48.238;13.948;2023-08-30T11:14:13;5.07;;;3.00;;
3993;SDS011;2011;48.238;13.948;2023-08-30T11:16:40;6.20;;;3.70;;
3993;SDS011;2011;48.238;13.948;2023-08-30T11:19:08;7.70;;;3.13;;
3993;SDS011;2011;48.238;13.948;2023-08-30T11:21:39;5.27;;;2.97;;
3993;SDS011;2011;48.238;13.948;2023-08-30T11:24:07;7.10;;;3.27;;
3993;SDS011;2011;48.238;13.948;2023-08-30T11:26:35;5.60;;;3.30;;
3993;SDS011;2011;48.238;13.948;2023-08-30T11:29:05;9.03;;;3.00;;
3993;SDS011;2011;48.238;13.948;2023-08-30T11:31:32;5.40;;;3.03;;
3993;SDS011;2011;48.238;13.948;2023-08-30T11:34:00;7.40;;;3.07;;
3993;SDS011;2011;48.238;13.948;2023-08-30T11:36:28;8.27;;;3.50;;
3993;SDS011;2011;48.238;13.948;2023-08-30T11:38:57;5.60;;;3.03;;
3993;SDS011;2011;48.238;13.948;2023-08-30T11:41:25;6.40;;;3.60;;
3993;SDS011;2011;48.238;13.948;2023-08-30T11:43:53;5.47;;;3.27;;
3993;SDS011;2011;48.238;13.948;2023-08-30T11:46:20;5.07;;;2.77;;
3993;SDS011;2011;48.238;13.948;2023-08-30T11:48:48;5.10;;;2.37;;
3993;SDS011;2011;48.238;13.948;2023-08-30T11:51:17;7.20;;;2.80;;
3993;SDS011;2011;48.238;13.948;2023-08-30T11:53:45;5.83;;;2.60;;
3993;SDS011;2011;48.238;13.948;2023-08-30T11:56:14;4.23;;;2.33;;
3993;SDS011;2011;48.238;13.948;2023-08-30T11:58:42;8.03;;;2.53;;
3993;SDS011;2011;48.238;13.948;2023-08-30T12:01:09;6.90;;;2.53;;
3993;SDS011;2011;48.238;13.948;2023-08-30T12:03:37;13.93;;;2.70;;
3993;SDS011;2011;48.238;13.948;2023-08-30T12:06:08;5.23;;;2.37;;
3993;SDS011;2011;48.238;13.948;2023-08-30T12:08:37;5.00;;;2.70;;
3993;SDS011;2011;48.238;13.948;2023-08-30T12:11:04;5.03;;;2.70;;
3993;SDS011;2011;48.238;13.948;2023-08-30T12:13:33;5.20;;;3.00;;
3993;SDS011;2011;48.238;13.948;2023-08-30T12:16:01;6.83;;;3.10;;
3993;SDS011;2011;48.238;13.948;2023-08-30T12:18:31;5.40;;;2.50;;
3993;SDS011;2011;48.238;13.948;2023-08-30T12:21:00;6.33;;;2.87;;
3993;SDS011;2011;48.238;13.948;2023-08-30T12:23:29;4.60;;;2.80;;
3993;SDS011;2011;48.238;13.948;2023-08-30T12:25:58;11.63;;;2.57;;
3993;SDS011;2011;48.238;13.948;2023-08-30T12:28:26;5.30;;;3.03;;
3993;SDS011;2011;48.238;13.948;2023-08-30T12:30:55;11.03;;;3.03;;
3993;SDS011;2011;48.238;13.948;2023-08-30T12:33:23;5.30;;;2.70;;
3993;SDS011;2011;48.238;13.948;2023-08-30T12:35:51;5.30;;;2.30;;
3993;SDS011;2011;48.238;13.948;2023-08-30T12:38:18;4.70;;;2.30;;
3993;SDS011;2011;48.238;13.948;2023-08-30T12:40:45;8.10;;;2.73;;
3993;SDS011;2011;48.238;13.948;2023-08-30T12:43:13;5.83;;;2.40;;
3993;SDS011;2011;48.238;13.948;2023-08-30T12:45:40;4.30;;;2.20;;
3993;SDS011;2011;48.238;13.948;2023-08-30T12:48:11;6.03;;;2.20;;
3993;SDS011;2011;48.238;13.948;2023-08-30T12:50:40;7.03;;;2.37;;
3993;SDS011;2011;48.238;13.948;2023-08-30T12:53:08;5.17;;;2.30;;
3993;SDS011;2011;48.238;13.948;2023-08-30T12:55:35;5.60;;;2.60;;
3993;SDS011;2011;48.238;13.948;2023-08-30T12:58:05;4.83;;;2.03;;
3993;SDS011;2011;48.238;13.948;2023-08-30T13:00:33;5.40;;;2.13;;
3993;SDS011;2011;48.238;13.948;2023-08-30T13:03:00;7.40;;;1.77;;
3993;SDS011;2011;48.238;13.948;2023-08-30T13:05:30;5.17;;;2.10;;
3993;SDS011;2011;48.238;13.948;2023-08-30T13:07:58;4.70;;;2.10;;
3993;SDS011;2011;48.238;13.948;2023-08-30T13:10:25;6.93;;;2.30;;
3993;SDS011;2011;48.238;13.948;2023-08-30T13:12:52;4.40;;;1.87;;
3993;SDS011;2011;48.238;13.948;2023-08-30T13:15:20;6.20;;;2.13;;
3993;SDS011;2011;48.238;13.948;2023-08-30T13:17:47;4.30;;;2.13;;
3993;SDS011;2011;48.238;13.948;2023-08-30T13:20:14;6.67;;;2.30;;
3993;SDS011;2011;48.238;13.948;2023-08-30T13:22:43;4.73;;;2.00;;
3993;SDS011;2011;48.238;13.948;2023-08-30T13:25:10;4.23;;;2.00;;
3993;SDS011;2011;48.238;13.948;2023-08-30T13:27:37;6.47;;;2.40;;
3993;SDS011;2011;48.238;13.948;2023-08-30T13:30:05;4.40;;;2.00;;
3993;SDS011;2011;48.238;13.948;2023-08-30T13:32:32;5.80;;;2.10;;
3993;SDS011;2011;48.238;13.948;2023-08-30T13:35:00;5.43;;;2.33;;
3993;SDS011;2011;48.238;13.948;2023-08-30T13:37:28;5.10;;;2.10;;
3993;SDS011;2011;48.238;13.948;2023-08-30T13:39:56;5.53;;;2.10;;
3993;SDS011;2011;48.238;13.948;2023-08-30T13:42:23;7.17;;;2.33;;
3993;SDS011;2011;48.238;13.948;2023-08-30T13:44:50;4.83;;;2.37;;
3993;SDS011;2011;48.238;13.948;2023-08-30T13:47:18;9.10;;;2.30;;
3993;SDS011;2011;48.238;13.948;2023-08-30T13:49:45;5.20;;;2.30;;
3993;SDS011;2011;48.238;13.948;2023-08-30T13:52:11;5.47;;;2.23;;
3993;SDS011;2011;48.238;13.948;2023-08-30T13:54:38;4.07;;;2.00;;
3993;SDS011;2011;48.238;13.948;2023-08-30T13:57:07;10.33;;;2.40;;
3993;SDS011;2011;48.238;13.948;2023-08-30T13:59:34;4.10;;;1.93;;
3993;SDS011;2011;48.238;13.948;2023-08-30T14:02:02;6.90;;;2.70;;
3993;SDS011;2011;48.238;13.948;2023-08-30T14:04:29;5.73;;;2.37;;
3993;SDS011;2011;48.238;13.948;2023-08-30T14:06:58;5.20;;;2.33;;
3993;SDS011;2011;48.238;13.948;2023-08-30T14:09:25;5.30;;;2.23;;
3993;SDS011;2011;48.238;13.948;2023-08-30T14:11:52;14.53;;;2.57;;
3993;SDS011;2011;48.238;13.948;2023-08-30T14:14:21;6.27;;;2.70;;
3993;SDS011;2011;48.238;13.948;2023-08-30T14:16:48;5.50;;;2.67;;
3993;SDS011;2011;48.238;13.948;2023-08-30T14:19:15;8.70;;;2.40;;
3993;SDS011;2011;48.238;13.948;2023-08-30T14:21:42;6.40;;;2.83;;
3993;SDS011;2011;48.238;13.948;2023-08-30T14:24:10;14.43;;;2.47;;
3993;SDS011;2011;48.238;13.948;2023-08-30T14:26:37;6.10;;;2.80;;
3993;SDS011;2011;48.238;13.948;2023-08-30T14:29:04;10.60;;;2.57;;
3993;SDS011;2011;48.238;13.948;2023-08-30T14:31:32;6.57;;;2.70;;
3993;SDS011;2011;48.238;13.948;2023-08-30T14:33:59;6.20;;;2.50;;
3993;SDS011;2011;48.238;13.948;2023-08-30T14:36:26;6.60;;;2.50;;
3993;SDS011;2011;48.238;13.948;2023-08-30T14:38:54;7.80;;;2.80;;
3993;SDS011;2011;48.238;13.948;2023-08-30T14:41:21;6.87;;;3.10;;
3993;SDS011;2011;48.238;13.948;2023-08-30T14:43:49;6.57;;;2.60;;
3993;SDS011;2011;48.238;13.948;2023-08-30T14:46:16;5.53;;;2.83;;
3993;SDS011;2011;48.238;13.948;2023-08-30T14:48:46;7.97;;;2.70;;
3993;SDS011;2011;48.238;13.948;2023-08-30T14:51:13;6.27;;;2.50;;
3993;SDS011;2011;48.238;13.948;2023-08-30T14:53:40;6.37;;;2.57;;
3993;SDS011;2011;48.238;13.948;2023-08-30T14:56:07;5.20;;;2.70;;
3993;SDS011;2011;48.238;13.948;2023-08-30T14:58:36;4.93;;;2.50;;